Time;durP1;ratioP1;P1;durP2;ratioP2;P2;SDS_P1;SDS_P2;PMS_P1;PMS_P2;Temp;Humidity;BMP_temperature;BMP_pressure;BME280_temperature;BME280_humidity;BME280_pressure;Samples;Min_cycle;Max_cycle;Signal;HPM_P1;HPM_P2
2023/06/20 00:00:53;;;;;;;24.98;20.10;;;;;;;22.30;49.73;93331.16;5007431;28;20516;-86
2023/06/20 00:03:18;;;;;;;27.10;19.95;;;;;;;22.31;49.48;93324.34;5007574;28;20083;-88
2023/06/20 00:05:44;;;;;;;26.58;19.65;;;;;;;22.30;49.57;93331.16;4994614;28;20030;-86
2023/06/20 00:08:09;;;;;;;28.48;20.40;;;;;;;22.30;49.38;93331.16;4972193;28;20455;-86
2023/06/20 00:10:35;;;;;;;31.17;20.83;;;;;;;22.30;49.60;93317.38;4988540;28;20042;-89
2023/06/20 00:13:00;;;;;;;27.08;20.73;;;;;;;22.29;49.50;93321.41;4987737;28;20484;-86
2023/06/20 00:15:26;;;;;;;28.48;20.40;;;;;;;22.29;49.62;93316.66;5024052;28;20038;-89
2023/06/20 00:17:59;;;;;;;29.23;19.85;;;;;;;22.29;49.72;93322.16;5019954;28;20041;-89
2023/06/20 00:20:25;;;;;;;25.35;20.35;;;;;;;22.29;49.47;93321.41;4991870;28;20528;-85
2023/06/20 00:22:50;;;;;;;27.50;19.48;;;;;;;22.29;49.33;93316.66;4977081;28;20061;-89
2023/06/20 00:25:16;;;;;;;26.17;19.25;;;;;;;22.28;49.39;93315.16;4991332;28;20045;-88
2023/06/20 00:27:42;;;;;;;29.95;20.08;;;;;;;22.27;49.50;93313.69;4989702;28;20045;-88
2023/06/20 00:30:08;;;;;;;24.73;21.15;;;;;;;22.27;49.64;93307.44;5012929;28;20084;-88
2023/06/20 00:32:33;;;;;;;26.50;20.00;;;;;;;22.26;49.42;93309.47;5016694;28;20493;-88
2023/06/20 00:34:58;;;;;;;27.05;20.35;;;;;;;22.26;49.39;93309.47;4975992;28;20033;-87
2023/06/20 00:37:25;;;;;;;26.38;20.15;;;;;;;22.27;49.25;93307.44;4991069;28;20057;-88
2023/06/20 00:39:50;;;;;;;26.88;19.42;;;;;;;22.25;49.47;93302.47;4998967;28;20180;-87
2023/06/20 00:42:17;;;;;;;23.42;19.13;;;;;;;22.26;49.63;93292.19;4984740;28;20068;-88
2023/06/20 00:44:42;;;;;;;24.75;19.95;;;;;;;22.27;49.34;93301.94;4994735;28;20037;-88
2023/06/20 00:47:08;;;;;;;25.20;18.80;;;;;;;22.25;49.43;93293.47;4994276;28;20091;-86
2023/06/20 00:49:34;;;;;;;26.65;18.48;;;;;;;22.26;49.02;93297.72;4981739;28;20448;-87
2023/06/20 00:52:01;;;;;;;27.33;20.27;;;;;;;22.26;49.40;93303.22;4980035;28;20457;-86
2023/06/20 00:54:27;;;;;;;24.95;19.45;;;;;;;22.25;49.45;93298.97;4977435;28;20258;-89
2023/06/20 00:56:52;;;;;;;26.50;18.98;;;;;;;22.25;49.21;93298.97;4991375;28;20211;-88
2023/06/20 00:59:18;;;;;;;27.70;19.58;;;;;;;22.23;49.31;93300.25;4990387;28;20378;-88
2023/06/20 01:01:43;;;;;;;24.38;18.83;;;;;;;22.23;49.27;93289.25;5002717;28;20038;-88
2023/06/20 01:04:09;;;;;;;25.00;19.27;;;;;;;22.23;49.03;93294.75;5013309;28;20049;-88
2023/06/20 01:06:44;;;;;;;25.90;18.70;;;;;;;22.23;49.22;93294.75;5027809;28;20239;-88
2023/06/20 01:09:15;;;;;;;21.10;17.50;;;;;;;22.21;49.20;93297.31;5010371;28;20044;-87
2023/06/20 01:12:02;;;;;;;24.27;19.30;;;;;;;22.22;49.42;93292.53;5013452;28;20116;-86
2023/06/20 01:14:42;;;;;;;22.40;18.10;;;;;;;22.22;49.22;93289.78;5016818;28;20042;-89
2023/06/20 01:17:12;;;;;;;24.60;16.83;;;;;;;22.21;49.12;93285.53;5021847;28;20394;-88
2023/06/20 01:19:43;;;;;;;;;;;;;;;22.24;49.25;93281.72;5011544;28;20496;-86
2023/06/20 01:22:14;;;;;;;26.25;18.15;;;;;;;22.20;49.23;93275.81;5027964;28;19944;-88
2023/06/20 01:24:49;;;;;;;23.20;16.75;;;;;;;22.20;49.43;93268.28;5010677;28;20048;-86
2023/06/20 01:27:16;;;;;;;22.27;16.88;;;;;;;22.20;49.35;93273.06;5004767;28;20124;-85
2023/06/20 01:29:46;;;;;;;21.90;16.17;;;;;;;22.18;49.13;93272.84;4996256;28;20042;-88
2023/06/20 01:32:13;;;;;;;21.80;17.02;;;;;;;22.19;49.21;93274.34;4980551;28;20145;-89
2023/06/20 01:34:49;;;;;;;21.15;16.50;;;;;;;22.19;49.23;93279.84;4992880;28;20034;-89
2023/06/20 01:37:16;;;;;;;21.38;16.23;;;;;;;22.19;49.11;93277.81;4991088;28;20038;-88
2023/06/20 01:39:46;;;;;;;19.52;16.30;;;;;;;22.18;49.13;93275.59;5021984;28;20508;-87
2023/06/20 01:42:11;;;;;;;26.10;19.00;;;;;;;22.19;49.18;93268.81;5011276;28;20045;-86
2023/06/20 01:44:37;;;;;;;19.30;16.55;;;;;;;22.19;49.16;93277.81;4990561;28;20049;-86
2023/06/20 01:47:02;;;;;;;21.55;16.00;;;;;;;22.18;49.30;93270.09;5001772;28;20065;-88
2023/06/20 01:49:28;;;;;;;21.17;17.27;;;;;;;22.19;48.99;93274.34;5025844;28;20041;-87
2023/06/20 01:51:55;;;;;;;21.88;17.17;;;;;;;22.18;49.05;93279.09;4989568;28;20409;-87
2023/06/20 01:54:22;;;;;;;25.90;17.15;;;;;;;22.18;49.12;93272.84;4978513;28;20059;-89
2023/06/20 01:56:48;;;;;;;19.17;15.93;;;;;;;22.17;49.04;93277.63;4985738;28;20041;-88
2023/06/20 01:59:13;;;;;;;21.00;17.17;;;;;;;22.18;49.22;93272.84;4993009;28;20045;-89
2023/06/20 02:01:42;;;;;;;20.45;15.98;;;;;;;22.18;48.92;93267.34;4998092;28;20757;-88
2023/06/20 02:04:07;;;;;;;22.10;17.75;;;;;;;22.18;48.99;93278.38;4995321;28;20072;-87
2023/06/20 02:06:32;;;;;;;22.05;16.63;;;;;;;22.18;49.09;93272.84;4997912;28;20401;-88
2023/06/20 02:08:58;;;;;;;21.00;16.65;;;;;;;22.17;49.32;93266.59;4990021;28;20045;-86
2023/06/20 02:11:23;;;;;;;24.50;17.00;;;;;;;22.17;49.26;93274.13;4991931;28;20038;-87
2023/06/20 02:13:49;;;;;;;20.45;15.82;;;;;;;22.18;49.03;93281.84;4988380;28;20087;-89
2023/06/20 02:16:14;;;;;;;17.63;14.68;;;;;;;22.16;48.99;93289.16;4988195;28;20041;-88
2023/06/20 02:18:40;;;;;;;22.40;15.43;;;;;;;22.15;48.99;93279.44;4984603;28;20034;-88
2023/06/20 02:21:07;;;;;;;21.20;15.57;;;;;;;22.15;49.09;93282.19;4971384;28;20038;-88
2023/06/20 02:23:33;;;;;;;19.17;15.80;;;;;;;22.16;48.80;93278.91;4990260;28;20125;-88
2023/06/20 02:26:09;;;;;;;19.23;14.90;;;;;;;22.15;48.95;93273.94;4969981;28;20053;-86
2023/06/20 02:28:38;;;;;;;19.55;14.68;;;;;;;22.14;48.83;93270.44;5012816;28;20034;-89
2023/06/20 02:31:05;;;;;;;20.63;14.88;;;;;;;22.15;48.89;93271.19;5001773;28;20057;-87
2023/06/20 02:33:32;;;;;;;19.08;14.95;;;;;;;22.16;48.89;93275.41;4997915;28;20045;-87
2023/06/20 02:35:58;;;;;;;18.27;15.23;;;;;;;22.16;48.77;93280.91;4989559;28;20042;-88
2023/06/20 02:38:23;;;;;;;18.83;15.38;;;;;;;22.15;49.02;93273.94;5021305;28;20044;-87
2023/06/20 02:40:49;;;;;;;17.55;14.10;;;;;;;22.15;48.92;93284.94;4992056;28;20078;-87
2023/06/20 02:43:15;;;;;;;18.95;14.75;;;;;;;22.15;49.04;93280.16;5006973;28;20053;-88
2023/06/20 02:45:40;;;;;;;231.00;190.55;;;;;;;22.17;48.94;93290.66;5014852;28;20038;-88
2023/06/20 02:48:26;;;;;;;51.22;42.15;;;;;;;22.17;49.11;93285.16;4992316;28;20052;-87
2023/06/20 02:51:10;;;;;;;18.42;15.60;;;;;;;22.19;49.06;93290.84;4982611;28;20056;-86
2023/06/20 02:53:57;;;;;;;19.23;15.02;;;;;;;22.20;48.91;93286.81;5002780;28;20096;-86
2023/06/20 02:56:23;;;;;;;19.77;15.38;;;;;;;22.19;48.73;93282.59;4977895;28;20063;-87
2023/06/20 02:58:51;;;;;;;22.70;15.57;;;;;;;22.19;48.74;93277.81;4989810;28;20073;-88
2023/06/20 03:01:20;;;;;;;49.72;40.13;;;;;;;22.19;48.83;93283.34;4970698;28;20046;-87
2023/06/20 03:03:46;;;;;;;34.70;27.63;;;;;;;22.21;48.78;93282.78;4990788;28;20030;-89
2023/06/20 03:06:14;;;;;;;82.07;53.45;;;;;;;22.21;48.97;93283.53;4973375;28;20041;-86
2023/06/20 03:08:42;;;;;;;21.88;16.05;;;;;;;22.23;47.95;93283.00;5013086;28;20041;-88
2023/06/20 03:11:08;;;;;;;17.58;11.73;;;;;;;22.11;47.19;93290.78;4985202;28;20454;-86
2023/06/20 03:13:33;;;;;;;15.85;10.43;;;;;;;21.86;46.72;93281.38;4980898;28;20121;-88
2023/06/20 03:15:59;;;;;;;16.58;11.23;;;;;;;21.80;46.56;93286.28;4989956;28;20033;-85
2023/06/20 03:18:24;;;;;;;14.80;10.13;;;;;;;21.56;46.91;93287.31;4985475;28;20048;-86
2023/06/20 03:20:50;;;;;;;13.30;10.05;;;;;;;21.47;46.89;93290.50;5017111;28;20033;-89
2023/06/20 03:23:18;;;;;;;10.25;9.13;;;;;;;21.46;46.89;93291.78;4992116;28;20063;-86
2023/06/20 03:25:43;;;;;;;13.20;9.52;;;;;;;21.47;46.85;93287.75;5008502;28;20044;-89
2023/06/20 03:28:10;;;;;;;11.80;9.63;;;;;;;21.35;47.09;93292.03;5000299;28;20133;-88
2023/06/20 03:30:35;;;;;;;17.33;10.45;;;;;;;21.20;47.54;93295.34;5006377;28;20050;-86
2023/06/20 03:33:01;;;;;;;44.45;37.47;;;;;;;21.16;48.00;93294.91;5041747;28;20386;-88
2023/06/20 03:35:26;;;;;;;14.50;11.52;;;;;;;21.27;47.56;93291.19;5005626;28;20050;-87
2023/06/20 03:37:53;;;;;;;21.63;18.50;;;;;;;21.23;47.30;93297.03;4997686;28;20050;-87
2023/06/20 03:40:18;;;;;;;18.40;14.90;;;;;;;21.28;47.15;93292.69;5024621;28;20045;-90
2023/06/20 03:42:44;;;;;;;19.90;17.05;;;;;;;21.23;47.06;93288.03;4991402;28;20042;-89
2023/06/20 03:45:09;;;;;;;13.88;12.48;;;;;;;21.12;47.75;93289.00;4986886;28;20501;-89
2023/06/20 03:47:35;;;;;;;17.33;11.35;;;;;;;21.11;47.80;93290.25;4990933;28;20533;-87
2023/06/20 03:50:00;;;;;;;25.13;14.18;;;;;;;21.12;47.76;93284.22;4989912;28;20097;-88
2023/06/20 03:52:26;;;;;;;28.95;13.60;;;;;;;21.17;47.72;93302.63;4990437;28;20038;-88
2023/06/20 03:54:51;;;;;;;47.25;16.90;;;;;;;21.16;47.61;93289.41;4993130;28;20401;-89
2023/06/20 03:57:16;;;;;;;40.25;16.60;;;;;;;21.20;47.61;93287.84;4998914;28;20038;-87
2023/06/20 03:59:42;;;;;;;31.00;13.35;;;;;;;21.28;47.49;93301.66;4990354;28;20045;-90
2023/06/20 04:02:07;;;;;;;57.28;31.60;;;;;;;21.36;47.48;93299.75;4981120;28;20050;-86
2023/06/20 04:04:33;;;;;;;38.72;16.38;;;;;;;21.37;47.56;93295.00;5007215;28;20475;-86
2023/06/20 04:06:58;;;;;;;56.17;27.40;;;;;;;21.38;47.30;93301.97;4976210;28;20057;-86
2023/06/20 04:09:27;;;;;;;32.17;15.13;;;;;;;21.35;47.58;93303.78;4992377;28;20042;-86
2023/06/20 04:11:53;;;;;;;60.80;24.83;;;;;;;21.41;47.45;93298.91;4974314;28;20088;-90
2023/06/20 04:14:19;;;;;;;58.05;25.20;;;;;;;21.44;47.40;93308.81;4982727;28;20077;-89
2023/06/20 04:16:44;;;;;;;42.08;20.73;;;;;;;21.43;47.76;93312.13;5011838;28;20105;-91
2023/06/20 04:19:10;;;;;;;58.83;26.52;;;;;;;21.48;48.09;93309.22;4991107;28;20054;-89
2023/06/20 04:21:35;;;;;;;76.97;31.80;;;;;;;21.53;48.60;93305.63;4994110;28;20818;-84
2023/06/20 04:24:03;;;;;;;58.65;34.60;;;;;;;21.52;48.98;93309.66;4975429;28;20205;-91
2023/06/20 04:26:31;;;;;;;33.47;19.58;;;;;;;21.50;49.88;93314.19;4991194;28;20505;-90
2023/06/20 04:28:57;;;;;;;85.47;45.30;;;;;;;21.53;50.16;93302.88;5008181;28;20404;-89
2023/06/20 04:31:22;;;;;;;66.90;35.28;;;;;;;21.53;50.52;93304.88;4998218;28;20054;-91
2023/06/20 04:33:48;;;;;;;37.72;22.40;;;;;;;21.57;50.65;93304.56;5000770;28;20069;-89
2023/06/20 04:36:13;;;;;;;35.80;18.58;;;;;;;21.51;51.53;93299.91;4973597;28;20057;-93
2023/06/20 04:38:40;;;;;;;39.13;22.75;;;;;;;21.58;52.39;93309.53;5031774;28;20084;-91
2023/06/20 04:41:05;;;;;;;43.25;17.50;;;;;;;21.52;53.13;93309.66;4973917;28;20050;-86
2023/06/20 04:43:31;;;;;;;32.28;16.35;;;;;;;21.47;53.32;93304.25;4990783;28;20042;-89
2023/06/20 04:45:57;;;;;;;45.53;17.55;;;;;;;21.55;53.21;93319.59;4992330;28;20120;-91
2023/06/20 04:48:27;;;;;;;23.95;13.65;;;;;;;21.46;53.39;93319.28;5003760;28;20508;-90
2023/06/20 04:50:55;;;;;;;;;;;;;;;21.48;52.94;93319.50;4984661;28;20424;-91
2023/06/20 04:53:20;;;;;;;38.05;15.27;;;;;;;21.49;52.81;93320.97;5028947;28;19928;-89
2023/06/20 04:55:46;;;;;;;27.35;15.77;;;;;;;21.43;53.43;93345.13;4992112;28;20046;-92
2023/06/20 04:58:11;;;;;;;48.05;21.42;;;;;;;21.44;53.76;93339.06;5025006;28;20054;-90
2023/06/20 05:00:37;;;;;;;102.90;33.90;;;;;;;21.44;53.86;93346.56;5004374;28;20078;-90
2023/06/20 05:03:04;;;;;;;108.00;40.97;;;;;;;21.44;53.96;93346.56;4976164;28;20568;-90
2023/06/20 05:05:29;;;;;;;116.65;40.40;;;;;;;21.48;53.91;93353.22;5009247;28;20560;-90
2023/06/20 05:07:56;;;;;;;61.00;22.65;;;;;;;21.52;52.88;93342.66;4975796;28;20038;-92
2023/06/20 05:10:22;;;;;;;46.85;18.35;;;;;;;21.56;52.78;93356.09;4960845;28;20797;-91
2023/06/20 05:12:47;;;;;;;49.33;20.00;;;;;;;21.58;52.68;93350.78;4993961;28;20120;-90
2023/06/20 05:15:13;;;;;;;33.45;18.13;;;;;;;21.63;52.33;93347.19;4961965;28;20096;-90
2023/06/20 05:17:38;;;;;;;33.60;17.17;;;;;;;21.66;52.28;93348.09;4987008;28;20034;-90
2023/06/20 05:20:06;;;;;;;34.67;18.75;;;;;;;21.69;52.14;93356.03;4971917;28;20057;-92
2023/06/20 05:22:33;;;;;;;49.30;21.83;;;;;;;21.70;52.29;93362.28;4992349;28;20101;-91
2023/06/20 05:24:59;;;;;;;52.15;21.08;;;;;;;21.80;51.81;93364.06;5003588;28;20091;-93
2023/06/20 05:27:24;;;;;;;56.25;21.05;;;;;;;21.80;51.94;93355.81;5005268;28;20046;-91
2023/06/20 05:29:50;;;;;;;48.25;18.33;;;;;;;21.80;52.89;93368.81;4987414;28;20045;-90
2023/06/20 05:32:16;;;;;;;39.38;17.52;;;;;;;21.77;53.28;93364.38;4992439;28;20041;-92
2023/06/20 05:34:41;;;;;;;29.33;15.55;;;;;;;21.76;55.06;93366.41;4994584;28;20033;-91
2023/06/20 05:37:07;;;;;;;24.95;14.88;;;;;;;21.77;55.86;93364.38;5011857;28;20041;-93
2023/06/20 05:39:32;;;;;;;29.63;13.88;;;;;;;21.82;56.32;93358.03;4978476;28;20128;-92
2023/06/20 05:41:58;;;;;;;26.77;11.98;;;;;;;21.78;56.17;93355.59;5001807;28;20050;-92
2023/06/20 05:44:23;;;;;;;32.40;16.17;;;;;;;21.81;55.74;93359.28;5008763;28;20037;-93
2023/06/20 05:46:49;;;;;;;44.40;22.95;;;;;;;21.81;54.80;93362.03;4993441;28;20038;-92
2023/06/20 05:49:15;;;;;;;42.45;21.05;;;;;;;21.79;54.71;93357.06;5005875;28;20038;-92
2023/06/20 05:51:44;;;;;;;19.10;11.98;;;;;;;21.79;55.04;93362.56;5008738;28;20061;-92
2023/06/20 05:54:10;;;;;;;26.67;13.32;;;;;;;21.77;53.84;93370.63;4977120;28;20102;-92
2023/06/20 05:56:36;;;;;;;19.05;11.98;;;;;;;21.75;53.14;93364.91;5001586;28;20054;-90
2023/06/20 05:59:01;;;;;;;37.22;13.63;;;;;;;21.79;53.38;93372.84;4974519;28;20045;-89
2023/06/20 06:01:27;;;;;;;38.25;15.80;;;;;;;21.80;52.82;93379.84;4979294;28;20167;-90
2023/06/20 06:03:52;;;;;;;31.88;15.65;;;;;;;21.81;53.04;93384.06;4972934;28;20159;-91
2023/06/20 06:06:18;;;;;;;25.52;13.73;;;;;;;21.81;54.22;93389.56;4974106;28;20202;-91
2023/06/20 06:08:43;;;;;;;21.05;11.95;;;;;;;21.97;54.13;93393.22;4959821;28;20041;-90
2023/06/20 06:11:09;;;;;;;38.50;24.30;;;;;;;21.93;53.93;93395.56;4989076;28;20042;-91
2023/06/20 06:13:34;;;;;;;23.42;15.95;;;;;;;21.99;53.67;93404.44;4987005;28;20046;-90
2023/06/20 06:16:00;;;;;;;23.33;14.18;;;;;;;21.98;53.83;93408.47;4994116;28;20088;-90
2023/06/20 06:18:25;;;;;;;18.42;13.60;;;;;;;21.96;53.85;93400.72;4988123;28;20042;-90
2023/06/20 06:20:51;;;;;;;13.73;11.07;;;;;;;22.02;53.63;93409.63;4976633;28;20060;-90
2023/06/20 06:23:16;;;;;;;17.55;10.35;;;;;;;22.14;53.35;93416.34;4982606;28;20052;-91
2023/06/20 06:25:44;;;;;;;14.38;10.77;;;;;;;22.03;53.95;93415.88;4968954;28;20048;-90
2023/06/20 06:28:10;;;;;;;13.30;10.15;;;;;;;22.12;54.34;93413.41;4984840;28;20042;-91
2023/06/20 06:30:36;;;;;;;17.52;11.40;;;;;;;22.11;54.25;93420.19;4986069;28;20049;-93
2023/06/20 06:33:02;;;;;;;30.77;18.70;;;;;;;22.23;53.48;93429.69;4963274;28;20093;-93
2023/06/20 06:35:30;;;;;;;72.28;39.20;;;;;;;22.15;53.73;93430.88;4958584;28;20782;-90
2023/06/20 06:37:56;;;;;;;53.40;30.92;;;;;;;22.05;54.62;93433.34;4984547;28;20038;-90
2023/06/20 06:40:22;;;;;;;51.92;34.15;;;;;;;22.18;53.40;93440.81;5012079;28;20125;-90
2023/06/20 06:42:47;;;;;;;43.97;25.73;;;;;;;22.13;53.13;93452.69;5011271;28;20148;-90
2023/06/20 06:45:14;;;;;;;87.38;28.95;;;;;;;22.05;53.20;93447.13;4994435;28;20129;-90
2023/06/20 06:47:39;;;;;;;102.00;30.08;;;;;;;22.04;53.19;93440.13;4992002;28;20081;-89
2023/06/20 06:50:06;;;;;;;74.45;23.55;;;;;;;22.10;53.24;93437.22;4985995;28;20046;-88
2023/06/20 06:52:32;;;;;;;54.35;20.98;;;;;;;22.01;53.46;93430.19;4985187;28;20041;-89
2023/06/20 06:54:58;;;;;;;48.60;18.13;;;;;;;22.02;53.63;93425.41;4988244;28;20053;-89
2023/06/20 06:57:23;;;;;;;37.88;15.75;;;;;;;21.96;53.36;93435.78;4992572;28;20067;-89
2023/06/20 06:59:49;;;;;;;27.85;13.88;;;;;;;22.05;53.36;93440.88;4995245;28;20462;-89
2023/06/20 07:02:14;;;;;;;23.08;14.27;;;;;;;22.04;53.29;93431.88;4955848;28;20053;-89
2023/06/20 07:04:41;;;;;;;20.90;12.40;;;;;;;22.04;52.62;93442.88;4998484;28;20065;-89
2023/06/20 07:07:06;;;;;;;28.52;15.52;;;;;;;22.09;52.64;93449.50;4974087;28;20049;-89
2023/06/20 07:09:32;;;;;;;36.45;20.73;;;;;;;22.06;52.44;93467.13;4995891;28;20042;-88
2023/06/20 07:11:57;;;;;;;51.30;21.92;;;;;;;22.01;52.49;93448.72;4965105;28;20432;-89
2023/06/20 07:14:23;;;;;;;31.67;18.27;;;;;;;22.02;52.63;93447.44;4971202;28;20045;-89
2023/06/20 07:16:48;;;;;;;32.88;16.83;;;;;;;21.98;52.77;93442.22;4995285;28;20041;-89
2023/06/20 07:19:14;;;;;;;26.30;16.92;;;;;;;21.97;52.96;93443.50;4983124;28;20046;-89
2023/06/20 07:21:39;;;;;;;26.80;15.60;;;;;;;22.05;52.77;93454.63;4976216;28;20049;-88
2023/06/20 07:24:05;;;;;;;21.50;14.50;;;;;;;22.01;53.05;93449.44;4979387;28;20049;-89
2023/06/20 07:26:30;;;;;;;22.65;13.40;;;;;;;22.02;53.37;93434.41;4973124;28;20038;-88
2023/06/20 07:28:56;;;;;;;24.27;14.63;;;;;;;22.15;52.98;93439.88;4991481;28;20049;-87
2023/06/20 07:31:21;;;;;;;19.70;13.35;;;;;;;22.08;53.07;93426.78;4990110;28;20053;-88
2023/06/20 07:33:47;;;;;;;16.40;13.27;;;;;;;22.08;53.26;93426.78;4998535;28;20030;-87
2023/06/20 07:36:12;;;;;;;15.15;13.00;;;;;;;22.14;52.99;93434.88;4989364;28;20056;-88
2023/06/20 07:38:38;;;;;;;22.02;13.00;;;;;;;22.30;52.83;93430.31;4985782;28;20038;-88
2023/06/20 07:41:04;;;;;;;16.02;12.70;;;;;;;22.22;52.94;93433.72;5002972;28;20056;-89
2023/06/20 07:43:29;;;;;;;24.42;13.40;;;;;;;22.13;53.24;93434.16;5006002;28;20046;-87
2023/06/20 07:45:55;;;;;;;22.73;14.05;;;;;;;22.13;53.15;93428.66;4990848;28;20092;-87
2023/06/20 07:48:24;;;;;;;23.45;16.23;;;;;;;22.13;53.28;93423.13;4975148;28;20094;-88
2023/06/20 07:50:49;;;;;;;24.85;13.68;;;;;;;22.15;53.18;93444.63;4978014;28;20034;-88
2023/06/20 07:53:15;;;;;;;18.90;13.48;;;;;;;22.20;53.34;93441.75;4976998;28;20042;-90
2023/06/20 07:55:40;;;;;;;16.65;13.55;;;;;;;22.35;53.41;93443.19;4975186;28;20065;-90
2023/06/20 07:58:05;;;;;;;26.77;14.43;;;;;;;22.27;53.58;93454.13;4967297;28;20038;-89
2023/06/20 08:00:31;;;;;;;32.05;13.48;;;;;;;22.31;53.92;93451.78;4971994;28;20050;-89
2023/06/20 08:02:56;;;;;;;29.00;13.57;;;;;;;22.32;54.51;93461.50;4979865;28;20053;-90
2023/06/20 08:05:22;;;;;;;47.33;24.52;;;;;;;22.32;54.36;93458.03;4972074;28;20102;-89
2023/06/20 08:07:48;;;;;;;53.15;27.63;;;;;;;22.30;54.44;93461.31;5007783;28;20042;-91
2023/06/20 08:10:14;;;;;;;60.58;32.65;;;;;;;22.35;54.63;93460.44;4978921;28;20049;-89
2023/06/20 08:12:40;;;;;;;57.03;29.63;;;;;;;22.27;54.87;93458.91;4975507;28;20037;-90
2023/06/20 08:15:06;;;;;;;60.63;30.00;;;;;;;22.28;54.74;93461.13;4992146;28;20046;-92
2023/06/20 08:17:32;;;;;;;59.08;27.92;;;;;;;22.29;54.93;93457.09;5021223;28;20148;-90
2023/06/20 08:19:59;;;;;;;58.08;29.30;;;;;;;22.39;54.66;93452.59;5031642;28;20458;-90
2023/06/20 08:22:25;;;;;;;53.22;25.80;;;;;;;22.40;54.81;93448.56;5021699;28;20073;-90
2023/06/20 08:24:51;;;;;;;67.28;32.60;;;;;;;22.40;54.83;93456.81;4971212;28;20030;-89
2023/06/20 08:27:16;;;;;;;65.00;37.35;;;;;;;22.39;54.85;93454.59;5004352;28;20053;-90
2023/06/20 08:29:42;;;;;;;73.07;34.60;;;;;;;22.46;54.47;93451.19;4974125;28;20077;-90
2023/06/20 08:32:07;;;;;;;79.47;32.13;;;;;;;22.42;54.64;93437.00;4955401;28;20062;-90
2023/06/20 08:34:33;;;;;;;67.90;32.42;;;;;;;22.40;54.54;93454.06;4983421;28;20354;-91
2023/06/20 08:36:58;;;;;;;87.85;44.15;;;;;;;22.42;54.23;93451.53;4975641;28;20432;-90
2023/06/20 08:39:24;;;;;;;91.50;46.70;;;;;;;22.44;54.42;93443.47;4995796;28;20057;-89
2023/06/20 08:41:50;;;;;;;65.35;35.05;;;;;;;22.41;54.57;93458.31;4993169;28;20042;-90
2023/06/20 08:44:15;;;;;;;57.72;29.83;;;;;;;22.48;54.00;93449.38;4966337;28;20048;-90
2023/06/20 08:46:41;;;;;;;55.28;30.05;;;;;;;22.46;54.06;93464.97;4988701;28;20316;-90
2023/06/20 08:49:07;;;;;;;41.40;25.23;;;;;;;22.47;54.46;93449.91;5020306;28;20046;-90
2023/06/20 08:51:33;;;;;;;35.63;22.48;;;;;;;22.48;54.26;93443.88;4972281;28;20064;-90
2023/06/20 08:53:58;;;;;;;42.25;24.60;;;;;;;22.41;54.52;93460.31;4982230;28;20820;-88
2023/06/20 08:56:24;;;;;;;37.38;22.33;;;;;;;22.47;54.67;93450.66;4962852;28;20041;-89
2023/06/20 08:58:49;;;;;;;37.03;23.58;;;;;;;22.51;54.63;93458.59;5007255;28;20057;-88
2023/06/20 09:01:14;;;;;;;76.80;46.33;;;;;;;22.45;54.69;93450.47;4993110;28;20060;-89
2023/06/20 09:03:40;;;;;;;86.25;47.95;;;;;;;22.52;54.73;93449.78;5012643;28;20515;-89
2023/06/20 09:06:06;;;;;;;76.20;39.38;;;;;;;22.58;54.73;93447.63;5012416;28;20399;-88
2023/06/20 09:08:36;;;;;;;71.55;33.03;;;;;;;22.57;54.55;93450.91;4998030;28;20112;-90
2023/06/20 09:11:09;;;;;;;52.42;29.80;;;;;;;22.58;54.78;93452.41;4977962;28;20030;-90
2023/06/20 09:13:35;;;;;;;42.47;25.05;;;;;;;22.56;54.93;93452.19;4999564;28;20636;-90
2023/06/20 09:16:05;;;;;;;40.90;22.10;;;;;;;22.57;54.91;93450.91;4989937;28;20034;-87
2023/06/20 09:18:33;;;;;;;35.88;22.88;;;;;;;22.66;54.85;93450.47;5000885;28;20116;-90
2023/06/20 09:20:58;;;;;;;55.13;33.70;;;;;;;22.67;55.21;93451.94;5015592;28;20055;-91
2023/06/20 09:23:28;;;;;;;61.20;34.05;;;;;;;22.63;54.89;93451.53;5009095;28;20042;-89
2023/06/20 09:25:55;;;;;;;54.63;32.08;;;;;;;22.61;54.86;93445.81;4980293;28;20098;-90
2023/06/20 09:28:21;;;;;;;66.82;33.53;;;;;;;22.59;55.04;93456.63;4993475;28;20038;-89
2023/06/20 09:30:48;;;;;;;64.32;32.97;;;;;;;22.56;54.90;93452.94;5014287;28;20046;-91
2023/06/20 09:33:14;;;;;;;69.80;34.13;;;;;;;22.61;54.99;93454.09;5005447;28;20096;-91
2023/06/20 09:35:39;;;;;;;64.03;33.13;;;;;;;22.57;54.91;93454.41;5021712;28;20041;-88
2023/06/20 09:38:05;;;;;;;59.67;32.05;;;;;;;22.57;54.93;93457.16;4998697;28;20124;-91
2023/06/20 09:40:31;;;;;;;67.90;32.15;;;;;;;22.63;55.04;93445.28;4994748;28;20298;-90
2023/06/20 09:42:57;;;;;;;63.78;30.90;;;;;;;22.64;54.74;93447.50;4992962;28;20485;-90
2023/06/20 09:45:23;;;;;;;58.28;30.70;;;;;;;22.64;54.95;93446.75;4956336;28;20089;-87
2023/06/20 09:47:48;;;;;;;64.38;32.17;;;;;;;22.66;54.95;93444.94;4974654;28;20030;-89
2023/06/20 09:50:16;;;;;;;68.05;35.55;;;;;;;22.61;54.88;93436.81;4983635;28;20052;-90
2023/06/20 09:52:55;;;;;;;60.20;32.30;;;;;;;22.63;54.64;93442.53;4991842;28;20041;-91
2023/06/20 09:55:21;;;;;;;56.20;30.42;;;;;;;22.61;55.01;93436.81;5022284;28;20044;-91
2023/06/20 09:57:57;;;;;;;63.08;28.55;;;;;;;22.63;54.75;93431.50;5013629;28;20116;-90
2023/06/20 10:00:25;;;;;;;97.97;30.25;;;;;;;22.62;55.07;93438.28;4983838;28;20459;-88
2023/06/20 10:02:50;;;;;;;70.95;30.45;;;;;;;22.62;55.06;93441.78;4975374;28;20504;-90
2023/06/20 10:05:17;;;;;;;73.22;29.85;;;;;;;22.62;54.87;93436.28;4974166;28;20052;-90
2023/06/20 10:07:43;;;;;;;56.53;24.92;;;;;;;22.62;54.82;93425.25;5002880;28;20034;-85
2023/06/20 10:10:10;;;;;;;55.25;27.42;;;;;;;22.61;54.76;93423.78;5024497;28;20042;-90
2023/06/20 10:12:36;;;;;;;58.80;25.27;;;;;;;22.68;54.85;93433.41;4982346;28;20076;-91
2023/06/20 10:15:03;;;;;;;63.85;27.60;;;;;;;22.68;54.31;93434.13;4974280;28;20045;-90
2023/06/20 10:17:32;;;;;;;55.42;24.77;;;;;;;22.66;54.48;93428.41;4988844;28;20045;-90
2023/06/20 10:19:59;;;;;;;50.53;24.00;;;;;;;22.67;54.40;93426.41;4991636;28;20038;-86
2023/06/20 10:22:34;;;;;;;49.67;23.98;;;;;;;22.66;54.27;93433.94;4988610;28;20080;-86
2023/06/20 10:25:11;;;;;;;40.88;21.23;;;;;;;22.66;54.68;93422.16;4988192;28;20460;-89
2023/06/20 10:27:41;;;;;;;39.58;21.13;;;;;;;22.71;54.39;93422.03;5002453;28;20526;-91
2023/06/20 10:30:07;;;;;;;35.72;20.85;;;;;;;22.70;54.24;93426.06;4986211;28;20047;-89
2023/06/20 10:32:32;;;;;;;35.63;21.02;;;;;;;22.65;54.13;93426.94;4982891;28;20564;-86
2023/06/20 10:35:09;;;;;;;35.85;20.58;;;;;;;22.66;54.34;93424.94;5011116;28;20368;-88
2023/06/20 10:37:36;;;;;;;27.50;18.08;;;;;;;22.72;54.32;93425.53;5028790;28;20057;-92
2023/06/20 10:40:05;;;;;;;31.55;18.85;;;;;;;22.66;54.44;93427.69;4973159;28;20327;-89
2023/06/20 10:42:34;;;;;;;29.60;19.63;;;;;;;22.73;54.11;93429.78;5005863;28;20535;-88
2023/06/20 10:45:25;;;;;;;35.80;18.55;;;;;;;22.72;54.19;93422.78;5011252;28;20050;-90
2023/06/20 10:47:51;;;;;;;34.22;18.42;;;;;;;22.76;54.10;93426.66;5028958;28;20451;-91
2023/06/20 10:50:16;;;;;;;34.08;18.88;;;;;;;22.78;54.22;93418.63;4986020;28;20037;-90
2023/06/20 10:52:42;;;;;;;37.15;20.48;;;;;;;22.80;54.07;93418.06;5006808;28;20263;-91
2023/06/20 10:55:08;;;;;;;29.70;18.23;;;;;;;22.79;53.97;93411.81;4976810;28;20042;-89
2023/06/20 10:57:35;;;;;;;36.25;19.70;;;;;;;22.78;53.97;93412.34;4977894;28;20493;-89
2023/06/20 11:00:12;;;;;;;43.13;26.00;;;;;;;22.79;54.23;93408.31;5001025;28;20049;-91
2023/06/20 11:02:38;;;;;;;101.15;36.97;;;;;;;22.79;54.10;93413.84;4992450;28;20040;-88
2023/06/20 11:05:04;;;;;;;82.75;33.95;;;;;;;22.79;54.09;93411.81;4991186;28;20037;-88
2023/06/20 11:07:29;;;;;;;78.25;31.25;;;;;;;22.81;54.04;93405.78;4990134;28;20026;-91
2023/06/20 11:09:55;;;;;;;70.45;29.02;;;;;;;22.79;54.17;93402.81;5018238;28;20045;-89
2023/06/20 11:12:20;;;;;;;91.78;45.50;;;;;;;22.80;54.14;93405.03;4999235;28;20073;-91
2023/06/20 11:14:47;;;;;;;73.63;29.63;;;;;;;22.79;54.12;93398.03;5008123;28;20029;-91